Time;durP1;ratioP1;P1;durP2;ratioP2;P2;SDS_P1;SDS_P2;PMS_P1;PMS_P2;Temp;Humidity;BMP_temperature;BMP_pressure;BME280_temperature;BME280_humidity;BME280_pressure;Samples;Min_cycle;Max_cycle;Signal;HPM_P1;HPM_P2
2021/03/20 00:02:15;;;;;;;2.53;1.30;;;17.20;33.60;;;;;;4995769;28;20175;-84
2021/03/20 00:04:59;;;;;;;1.60;1.30;;;17.10;33.60;;;;;;5012421;28;20655;-84
2021/03/20 00:07:27;;;;;;;2.38;1.20;;;17.20;33.70;;;;;;4996081;28;20163;-83
2021/03/20 00:13:16;;;;;;;1.75;1.20;;;17.10;33.60;;;;;;5049898;28;20223;-83
2021/03/20 00:16:26;;;;;;;2.22;1.10;;;17.20;33.70;;;;;;4999659;28;20173;-83
2021/03/20 00:18:54;;;;;;;1.80;1.20;;;17.10;33.70;;;;;;5050196;28;20179;-83
2021/03/20 00:24:43;;;;;;;3.30;1.30;;;17.10;33.80;;;;;;5049861;28;20628;-83
2021/03/20 00:27:34;;;;;;;1.92;1.40;;;17.10;33.80;;;;;;5015827;28;20203;-83
2021/03/20 00:30:11;;;;;;;1.95;1.23;;;17.10;33.80;;;;;;5032656;28;20155;-83
2021/03/20 00:32:38;;;;;;;1.67;1.27;;;17.10;33.80;;;;;;5016345;28;20166;-83
2021/03/20 00:35:26;;;;;;;1.60;1.23;;;17.10;33.80;;;;;;4999198;28;20190;-83
2021/03/20 00:41:15;;;;;;;1.90;1.38;;;17.10;33.70;;;;;;5049783;28;20162;-83
2021/03/20 00:43:45;;;;;;;2.10;1.30;;;17.10;33.70;;;;;;5015678;28;20162;-83
2021/03/20 00:46:59;;;;;;;2.17;1.40;;;17.10;33.70;;;;;;4998719;28;20171;-83
2021/03/20 00:52:58;;;;;;;1.35;1.23;;;17.10;33.80;;;;;;5049253;28;20177;-83
2021/03/20 00:55:57;;;;;;;1.48;1.30;;;17.10;33.70;;;;;;5032710;28;20181;-83
2021/03/20 00:58:41;;;;;;;1.42;1.10;;;17.10;33.90;;;;;;5010788;28;20281;-83
2021/03/20 01:01:09;;;;;;;1.75;1.30;;;17.00;33.80;;;;;;5012909;28;20160;-83
2021/03/20 01:04:09;;;;;;;1.48;1.17;;;17.00;33.80;;;;;;5011667;28;20147;-83
2021/03/20 01:06:54;;;;;;;2.25;1.17;;;17.00;34.00;;;;;;5011754;28;20171;-83
2021/03/20 01:09:20;;;;;;;1.77;1.20;;;17.00;33.90;;;;;;5027709;28;20163;-83
2021/03/20 01:11:47;;;;;;;1.95;1.40;;;17.00;33.90;;;;;;5011824;28;20217;-83
2021/03/20 01:14:16;;;;;;;2.15;1.38;;;17.00;33.90;;;;;;4995552;28;20168;-83
2021/03/20 01:20:39;;;;;;;2.13;1.25;;;17.00;34.00;;;;;;4948803;29;20181;-83
2021/03/20 01:23:42;;;;;;;2.13;1.30;;;17.00;33.80;;;;;;4933659;29;20204;-83
2021/03/20 01:26:16;;;;;;;1.27;1.13;;;17.00;34.00;;;;;;4933471;29;20170;-83
2021/03/20 01:28:42;;;;;;;1.98;1.35;;;17.00;34.10;;;;;;4933098;29;20267;-83
2021/03/20 01:31:22;;;;;;;2.40;1.33;;;17.00;34.00;;;;;;4933194;29;20170;-83
2021/03/20 01:37:12;;;;;;;1.42;1.17;;;17.00;34.00;;;;;;4948994;29;20229;-83
2021/03/20 01:39:47;;;;;;;1.85;1.10;;;17.00;34.00;;;;;;4932395;29;20170;-83
2021/03/20 01:42:20;;;;;;;1.55;1.17;;;17.00;34.00;;;;;;4933646;29;20181;-83
2021/03/20 01:45:18;;;;;;;2.13;1.30;;;17.00;34.10;;;;;;4932525;29;20655;-83
2021/03/20 01:48:09;;;;;;;1.77;1.30;;;16.90;34.10;;;;;;4948540;29;20174;-83
2021/03/20 01:50:50;;;;;;;3.47;1.30;;;16.90;34.20;;;;;;4931894;29;20190;-83
2021/03/20 01:53:35;;;;;;;3.22;1.23;;;16.90;34.20;;;;;;4932722;29;20158;-83
2021/03/20 01:56:19;;;;;;;4.22;1.42;;;16.90;34.10;;;;;;4995124;28;20211;-83
2021/03/20 01:58:46;;;;;;;1.98;1.40;;;16.90;34.10;;;;;;5009846;28;20249;-83
2021/03/20 02:01:32;;;;;;;1.77;1.20;;;16.90;34.10;;;;;;4978364;28;20164;-83
2021/03/20 02:04:07;;;;;;;2.22;1.55;;;16.90;34.10;;;;;;4994199;28;20179;-83
2021/03/20 02:06:36;;;;;;;1.88;1.17;;;16.90;34.10;;;;;;4994744;28;20155;-83
2021/03/20 02:09:06;;;;;;;1.70;1.27;;;17.00;34.10;;;;;;5010129;28;20164;-83
2021/03/20 02:11:51;;;;;;;1.92;1.17;;;17.00;34.10;;;;;;4994783;28;20168;-83
2021/03/20 02:14:47;;;;;;;2.10;1.13;;;17.00;34.20;;;;;;5010789;28;20171;-83
2021/03/20 02:17:22;;;;;;;1.52;1.27;;;17.00;34.10;;;;;;5010120;28;20187;-83
2021/03/20 02:20:35;;;;;;;2.40;1.30;;;17.00;34.10;;;;;;5027183;28;20159;-83
2021/03/20 02:23:46;;;;;;;2.50;1.15;;;16.90;34.10;;;;;;5009767;28;20179;-83
2021/03/20 02:26:37;;;;;;;1.67;1.30;;;16.90;34.10;;;;;;4928425;29;20194;-83
2021/03/20 02:32:43;;;;;;;1.73;1.20;;;17.00;34.10;;;;;;4928437;29;20191;-83
2021/03/20 02:38:42;;;;;;;1.55;1.08;;;16.90;34.20;;;;;;4928981;29;20221;-83
2021/03/20 02:41:20;;;;;;;1.73;1.30;;;16.90;34.20;;;;;;4928284;29;20170;-83
2021/03/20 02:43:58;;;;;;;2.08;1.30;;;16.90;34.10;;;;;;4928474;29;20182;-83
2021/03/20 02:50:07;;;;;;;2.72;1.35;;;16.90;34.30;;;;;;4928810;29;20193;-83
2021/03/20 02:52:48;;;;;;;1.60;1.10;;;16.90;34.20;;;;;;4928191;29;20198;-83
2021/03/20 02:55:42;;;;;;;1.40;1.30;;;16.90;34.30;;;;;;4927739;29;20634;-83
2021/03/20 02:58:35;;;;;;;1.67;1.30;;;16.90;34.30;;;;;;4928542;29;20663;-83
2021/03/20 03:05:18;;;;;;;1.48;1.08;;;16.90;34.40;;;;;;5027006;28;20155;-83
2021/03/20 03:08:24;;;;;;;2.25;1.20;;;16.80;34.30;;;;;;4912913;29;20179;-83
2021/03/20 03:11:06;;;;;;;2.35;1.10;;;16.80;34.40;;;;;;4912423;29;20174;-83
2021/03/20 03:14:40;;;;;;;3.05;1.20;;;16.90;34.40;;;;;;4927794;29;20218;-83
2021/03/20 03:17:29;;;;;;;1.42;0.82;;;16.90;34.40;;;;;;4905341;29;20218;-83
2021/03/20 03:20:35;;;;;;;1.80;1.40;;;16.90;34.30;;;;;;4912112;29;20202;-83
2021/03/20 03:23:10;;;;;;;1.55;1.20;;;16.90;34.30;;;;;;4911534;29;20198;-83
2021/03/20 03:26:12;;;;;;;2.38;1.23;;;16.90;34.30;;;;;;4912754;29;20206;-83
2021/03/20 03:28:51;;;;;;;1.75;1.23;;;16.90;34.40;;;;;;4911912;29;20190;-83
2021/03/20 03:31:55;;;;;;;1.90;1.45;;;16.90;34.30;;;;;;4897431;29;20634;-82
2021/03/20 03:34:33;;;;;;;1.40;1.10;;;16.90;34.30;;;;;;4928304;29;20261;-83
2021/03/20 03:37:30;;;;;;;1.83;1.00;;;16.80;34.40;;;;;;4913831;29;20234;-83
2021/03/20 03:40:16;;;;;;;2.67;1.10;;;16.80;34.40;;;;;;4928101;29;20198;-83
2021/03/20 03:42:59;;;;;;;1.42;1.10;;;16.80;34.40;;;;;;4999426;28;20638;-83
2021/03/20 03:46:02;;;;;;;1.23;1.13;;;16.80;34.40;;;;;;4978702;28;20641;-83
2021/03/20 03:48:38;;;;;;;1.92;1.20;;;16.90;34.40;;;;;;5013419;28;20203;-83
2021/03/20 03:51:46;;;;;;;1.45;1.00;;;16.80;34.40;;;;;;5012613;28;20227;-83
2021/03/20 03:54:15;;;;;;;1.70;1.30;;;16.80;34.40;;;;;;5030157;28;20166;-83
2021/03/20 03:57:25;;;;;;;1.17;1.05;;;16.80;34.40;;;;;;4997118;28;20198;-83
2021/03/20 04:00:17;;;;;;;1.92;1.13;;;16.90;34.50;;;;;;5013074;28;20230;-83
2021/03/20 04:03:21;;;;;;;2.33;1.20;;;16.80;34.50;;;;;;4996142;28;20167;-83
2021/03/20 04:06:17;;;;;;;1.95;1.13;;;16.90;34.50;;;;;;5030110;28;20219;-83
2021/03/20 04:12:12;;;;;;;2.10;1.40;;;16.80;34.40;;;;;;5030718;28;20218;-83
2021/03/20 04:18:17;;;;;;;2.17;1.20;;;16.80;34.40;;;;;;5030256;28;20272;-83
2021/03/20 04:30:37;;;;;;;1.27;0.90;;;16.80;34.40;;;;;;5030178;28;20219;-83
2021/03/20 04:36:36;;;;;;;1.50;1.30;;;16.80;34.40;;;;;;5030122;28;20198;-83
2021/03/20 04:39:02;;;;;;;1.50;1.27;;;16.80;34.40;;;;;;4980329;28;20668;-83
2021/03/20 04:41:28;;;;;;;1.30;1.00;;;16.80;34.60;;;;;;4995690;28;20163;-83
2021/03/20 04:43:55;;;;;;;1.48;1.20;;;16.80;34.50;;;;;;4979946;28;20722;-83
2021/03/20 04:46:29;;;;;;;1.48;1.13;;;16.70;34.60;;;;;;4996138;28;20549;-83
2021/03/20 04:52:56;;;;;;;1.17;1.08;;;16.80;34.60;;;;;;5029547;28;20166;-83
2021/03/20 04:55:33;;;;;;;2.55;1.42;;;16.80;34.60;;;;;;5011666;28;20171;-83
2021/03/20 04:58:25;;;;;;;1.58;1.00;;;16.80;34.60;;;;;;4978655;28;20226;-83
2021/03/20 05:01:11;;;;;;;1.55;1.10;;;16.80;34.60;;;;;;4963773;28;20702;-83
2021/03/20 05:03:48;;;;;;;2.15;1.33;;;16.80;34.60;;;;;;4961310;28;20164;-83
2021/03/20 05:06:24;;;;;;;1.63;1.13;;;16.80;34.60;;;;;;4975706;28;20192;-82
2021/03/20 05:09:06;;;;;;;2.05;1.13;;;16.80;34.50;;;;;;4960259;28;20164;-83
2021/03/20 05:21:45;;;;;;;1.52;1.20;;;16.80;34.80;;;;;;5009425;28;20178;-82
2021/03/20 05:24:57;;;;;;;1.85;1.27;;;16.80;34.70;;;;;;4975357;28;20182;-82
2021/03/20 05:28:04;;;;;;;1.88;1.33;;;16.70;34.70;;;;;;5009747;28;20187;-83
2021/03/20 05:30:48;;;;;;;2.55;1.40;;;16.80;34.60;;;;;;5009038;28;20172;-82
2021/03/20 05:37:18;;;;;;;1.90;1.27;;;16.80;34.60;;;;;;5008839;28;20286;-83
2021/03/20 05:40:23;;;;;;;1.40;1.10;;;16.80;34.60;;;;;;4991108;28;20199;-83
2021/03/20 05:42:56;;;;;;;1.08;0.98;;;16.80;34.70;;;;;;4991443;28;20170;-83
2021/03/20 05:52:25;;;;;;;2.55;1.42;;;16.80;34.60;;;;;;5008713;28;20216;-82
2021/03/20 05:55:23;;;;;;;1.70;1.27;;;16.80;34.70;;;;;;4976247;28;20206;-83
2021/03/20 05:58:18;;;;;;;1.73;1.10;;;16.80;34.70;;;;;;4974857;28;20202;-83
2021/03/20 06:07:59;;;;;;;1.40;1.10;;;16.80;34.70;;;;;;5008151;28;20516;-83
2021/03/20 06:14:12;;;;;;;1.55;1.10;;;16.80;34.70;;;;;;5007731;28;20183;-83
2021/03/20 06:16:45;;;;;;;1.50;1.08;;;16.80;34.80;;;;;;4975053;28;20275;-83
2021/03/20 06:19:31;;;;;;;1.35;1.10;;;16.80;34.70;;;;;;4976147;28;20176;-83
2021/03/20 06:22:31;;;;;;;1.15;1.00;;;16.80;34.70;;;;;;5086047;23;20293;-82
2021/03/20 06:25:19;;;;;;;1.40;1.10;;;16.80;34.70;;;;;;5009988;28;20156;-82
2021/03/20 06:27:52;;;;;;;1.77;1.23;;;16.80;34.80;;;;;;5010025;28;20168;-82
2021/03/20 06:30:43;;;;;;;3.40;1.00;;;16.80;34.80;;;;;;4994399;28;20247;-82
2021/03/20 06:36:45;;;;;;;1.80;1.15;;;16.70;34.80;;;;;;5027745;28;20685;-83
2021/03/20 06:39:27;;;;;;;1.17;0.98;;;16.70;34.80;;;;;;4978558;28;20210;-83
2021/03/20 06:42:04;;;;;;;2.38;1.27;;;16.80;34.80;;;;;;5010511;28;20551;-83
2021/03/20 06:45:15;;;;;;;1.88;1.23;;;16.80;34.80;;;;;;4994548;28;20184;-83
2021/03/20 06:47:42;;;;;;;1.63;0.90;;;16.70;34.80;;;;;;5006638;28;20207;-83
2021/03/20 06:50:32;;;;;;;2.45;1.30;;;16.70;34.90;;;;;;4993774;28;20634;-83
2021/03/20 06:52:59;;;;;;;0.90;0.80;;;16.70;34.90;;;;;;4994839;28;20635;-82
2021/03/20 06:55:33;;;;;;;1.73;1.20;;;16.70;34.80;;;;;;4993623;28;20603;-83
2021/03/20 06:58:18;;;;;;;1.20;1.00;;;16.70;34.80;;;;;;4976808;28;20293;-82
2021/03/20 07:01:24;;;;;;;1.38;1.00;;;16.70;34.80;;;;;;5027324;28;20159;-83
2021/03/20 07:04:15;;;;;;;1.52;1.20;;;16.70;34.80;;;;;;5009082;28;20171;-83
2021/03/20 07:07:12;;;;;;;1.38;1.00;;;16.70;34.80;;;;;;5009930;28;20194;-82
2021/03/20 07:09:40;;;;;;;1.20;1.08;;;16.80;34.80;;;;;;5008907;28;20171;-83
2021/03/20 07:12:31;;;;;;;1.52;1.10;;;16.80;34.70;;;;;;4976698;28;20221;-84
2021/03/20 07:14:58;;;;;;;1.92;1.05;;;16.90;34.60;;;;;;4995720;28;20246;-83
2021/03/20 07:17:37;;;;;;;1.50;1.10;;;16.90;34.60;;;;;;4976618;28;20199;-83
2021/03/20 07:20:21;;;;;;;1.45;1.10;;;16.80;34.60;;;;;;4992410;28;20175;-83
2021/03/20 07:23:11;;;;;;;1.73;1.20;;;16.80;34.60;;;;;;5008112;28;20223;-83
2021/03/20 07:26:08;;;;;;;1.33;1.10;;;16.80;34.80;;;;;;5010351;28;20163;-83
2021/03/20 07:28:42;;;;;;;1.50;1.00;;;16.80;34.80;;;;;;4963829;29;20189;-83
2021/03/20 07:31:21;;;;;;;1.60;1.02;;;16.80;34.70;;;;;;4961843;29;20185;-82
2021/03/20 07:33:53;;;;;;;1.60;1.02;;;16.80;34.90;;;;;;4932112;29;20213;-82
2021/03/20 07:36:30;;;;;;;1.52;1.10;;;16.70;34.90;;;;;;4946795;29;20263;-82
2021/03/20 07:39:19;;;;;;;2.33;1.10;;;16.80;34.90;;;;;;4948170;29;20190;-83
2021/03/20 07:41:51;;;;;;;2.28;1.10;;;16.70;35.00;;;;;;4953900;29;20189;-83
2021/03/20 07:44:20;;;;;;;1.38;1.00;;;16.70;35.10;;;;;;4965478;29;20169;-83
2021/03/20 07:46:48;;;;;;;2.28;1.20;;;16.70;35.10;;;;;;4933682;29;20189;-83
2021/03/20 07:49:38;;;;;;;1.67;1.20;;;16.70;35.20;;;;;;4934104;29;20220;-82
2021/03/20 07:52:24;;;;;;;1.90;1.20;;;16.70;35.10;;;;;;4933719;29;20190;-82
2021/03/20 07:55:37;;;;;;;1.23;1.00;;;16.70;35.00;;;;;;4949944;29;20169;-83
2021/03/20 07:58:04;;;;;;;1.15;1.00;;;16.70;35.10;;;;;;4946936;29;20216;-81
2021/03/20 08:01:15;;;;;;;1.83;1.40;;;16.70;35.10;;;;;;4947572;29;20225;-82
2021/03/20 08:06:56;;;;;;;2.85;1.10;;;16.80;35.10;;;;;;5025284;28;20673;-82
2021/03/20 08:09:27;;;;;;;1.98;1.17;;;16.80;35.10;;;;;;4996274;28;20566;-82
2021/03/20 08:12:36;;;;;;;3.33;1.20;;;16.90;34.90;;;;;;4992306;28;20168;-84
2021/03/20 08:15:06;;;;;;;1.70;1.20;;;17.00;34.90;;;;;;5008595;28;20167;-82
2021/03/20 08:17:31;;;;;;;2.88;1.23;;;17.00;34.90;;;;;;5020620;28;20205;-83
2021/03/20 08:20:24;;;;;;;2.75;1.17;;;17.00;35.00;;;;;;5010808;28;20590;-83
2021/03/20 08:23:18;;;;;;;3.83;1.20;;;16.90;35.10;;;;;;5008790;28;20246;-84
2021/03/20 08:32:20;;;;;;;20.48;1.70;;;17.10;35.30;;;;;;5030602;28;20171;-83
2021/03/20 08:35:39;;;;;;;14.27;1.80;;;17.10;35.30;;;;;;5011018;28;20168;-83
2021/03/20 08:38:32;;;;;;;10.25;1.73;;;17.20;35.30;;;;;;5030375;28;20192;-83
2021/03/20 08:45:00;;;;;;;18.05;2.45;;;17.20;35.30;;;;;;5029986;28;20167;-81
2021/03/20 08:51:23;;;;;;;32.55;2.38;;;17.10;35.50;;;;;;4898700;29;20184;-83
2021/03/20 08:54:07;;;;;;;30.55;2.53;;;17.20;35.70;;;;;;4912527;29;20296;-82
2021/03/20 08:56:56;;;;;;;18.75;2.00;;;17.20;35.70;;;;;;4898234;29;20319;-82
2021/03/20 08:59:55;;;;;;;30.25;2.38;;;17.20;35.70;;;;;;4863748;29;20197;-83
2021/03/20 09:06:02;;;;;;;33.13;2.72;;;17.40;35.30;;;;;;4840653;29;20200;-81
2021/03/20 09:08:52;;;;;;;25.05;2.22;;;17.30;35.30;;;;;;4808373;29;20198;-82
2021/03/20 09:14:56;;;;;;;23.13;2.08;;;17.40;35.20;;;;;;4864478;29;20207;-81
2021/03/20 09:21:04;;;;;;;25.08;2.63;;;17.30;35.70;;;;;;4860397;29;20207;-81
2021/03/20 09:24:29;;;;;;;19.85;2.10;;;17.20;35.70;;;;;;4891915;29;20239;-82
2021/03/20 09:26:58;;;;;;;15.23;2.08;;;17.20;35.90;;;;;;4892686;29;20188;-82
2021/03/20 09:30:18;;;;;;;16.58;2.67;;;17.30;35.90;;;;;;4867574;29;20191;-82
2021/03/20 09:36:51;;;;;;;19.67;2.40;;;17.40;35.80;;;;;;4910442;29;20175;-82
2021/03/20 09:46:44;;;;;;;29.40;2.85;;;17.30;35.90;;;;;;4894226;29;20235;-81
2021/03/20 09:49:26;;;;;;;32.38;2.70;;;17.30;36.10;;;;;;4878181;29;20187;-82
2021/03/20 09:52:19;;;;;;;33.58;3.17;;;17.30;36.20;;;;;;4877872;29;20187;-82
2021/03/20 09:58:56;;;;;;;26.77;2.72;;;17.40;36.40;;;;;;4894751;29;20203;-81
2021/03/20 10:01:50;;;;;;;34.38;3.25;;;17.40;36.30;;;;;;4891022;29;20248;-81
2021/03/20 10:04:53;;;;;;;33.95;3.75;;;17.40;36.60;;;;;;4834769;29;20176;-81
2021/03/20 10:07:56;;;;;;;53.17;3.05;;;17.50;37.20;;;;;;4807552;29;20195;-81
2021/03/20 10:10:32;;;;;;;28.85;2.80;;;17.60;36.30;;;;;;4785718;30;20234;-81
2021/03/20 10:13:20;;;;;;;29.02;2.90;;;17.60;36.10;;;;;;4799155;30;20296;-80
2021/03/20 10:16:04;;;;;;;40.90;3.42;;;17.60;36.20;;;;;;4799443;29;20175;-80
2021/03/20 10:18:53;;;;;;;25.45;2.47;;;17.50;36.30;;;;;;4781368;30;20267;-79
2021/03/20 10:25:03;;;;;;;39.13;3.38;;;17.40;36.50;;;;;;4909903;29;20242;-81
2021/03/20 10:27:35;;;;;;;27.08;3.08;;;17.50;36.70;;;;;;4894858;29;20200;-81
2021/03/20 10:30:25;;;;;;;30.55;2.90;;;17.50;36.60;;;;;;4908755;29;20196;-81
2021/03/20 10:32:58;;;;;;;32.35;2.97;;;17.50;36.80;;;;;;4902249;29;20226;-81
2021/03/20 10:35:50;;;;;;;50.40;3.03;;;17.40;36.80;;;;;;4914358;29;20173;-81
2021/03/20 10:38:50;;;;;;;36.50;3.03;;;17.40;36.90;;;;;;4914312;29;20209;-81
2021/03/20 10:41:36;;;;;;;49.13;3.97;;;17.40;37.00;;;;;;4929310;29;20174;-79
2021/03/20 10:44:19;;;;;;;36.45;3.55;;;17.40;37.10;;;;;;4952999;28;20179;-80
2021/03/20 10:47:21;;;;;;;53.75;3.95;;;17.40;37.00;;;;;;4980458;28;20174;-80
2021/03/20 10:49:58;;;;;;;56.10;3.72;;;17.40;37.10;;;;;;5005784;28;20182;-79
2021/03/20 10:52:36;;;;;;;48.97;3.65;;;17.50;37.30;;;;;;5010554;28;20237;-80
2021/03/20 10:55:15;;;;;;;46.70;3.47;;;17.50;37.10;;;;;;4976972;28;20230;-79
2021/03/20 10:57:50;;;;;;;32.83;3.05;;;17.50;37.00;;;;;;5006060;28;20207;-80
2021/03/20 11:00:25;;;;;;;22.40;2.85;;;17.50;37.10;;;;;;4991903;28;20243;-81
2021/03/20 11:03:06;;;;;;;25.65;3.63;;;17.50;37.20;;;;;;4993912;28;20181;-81
2021/03/20 11:05:36;;;;;;;34.58;2.90;;;17.60;37.00;;;;;;4993595;28;20179;-80
2021/03/20 11:09:03;;;;;;;26.60;2.53;;;17.60;37.10;;;;;;4973407;28;20171;-81
2021/03/20 11:11:49;;;;;;;30.10;3.22;;;17.60;37.20;;;;;;4988016;28;20188;-79
2021/03/20 11:14:28;;;;;;;35.20;2.50;;;17.70;37.30;;;;;;5024727;28;20175;-79
2021/03/20 11:20:32;;;;;;;23.52;3.20;;;17.60;37.40;;;;;;5030309;28;20159;-81
2021/03/20 11:23:24;;;;;;;40.22;4.05;;;17.60;37.50;;;;;;5012726;28;20155;-80
2021/03/20 11:25:54;;;;;;;38.05;2.95;;;17.60;38.20;;;;;;4985313;28;20163;-80
2021/03/20 11:29:10;;;;;;;25.23;2.70;;;17.60;37.90;;;;;;4983239;28;20179;-80
2021/03/20 11:31:58;;;;;;;30.10;2.88;;;17.60;37.60;;;;;;5014802;28;20160;-81
2021/03/20 11:34:32;;;;;;;33.30;2.70;;;17.70;37.80;;;;;;5008970;28;20164;-81
2021/03/20 11:37:09;;;;;;;31.67;3.28;;;17.70;37.80;;;;;;4977341;28;20215;-81
2021/03/20 11:40:09;;;;;;;31.08;2.65;;;17.60;37.60;;;;;;4994659;28;20179;-82
2021/03/20 11:46:23;;;;;;;32.55;3.13;;;17.60;37.80;;;;;;5028254;28;20259;-83
2021/03/20 11:49:43;;;;;;;33.55;3.42;;;17.70;37.70;;;;;;5000006;28;20266;-82
2021/03/20 11:55:37;;;;;;;24.20;3.28;;;17.70;37.60;;;;;;5008811;28;20222;-82
2021/03/20 11:58:31;;;;;;;38.72;3.60;;;17.70;37.70;;;;;;4987348;28;20191;-83
2021/03/20 12:00:58;;;;;;;31.77;3.45;;;17.80;37.70;;;;;;5001441;28;20253;-83
2021/03/20 12:03:31;;;;;;;33.88;3.15;;;17.80;37.80;;;;;;4994947;28;20164;-81
2021/03/20 12:06:20;;;;;;;23.15;2.85;;;17.80;37.80;;;;;;5012109;28;20151;-81
2021/03/20 12:08:54;;;;;;;37.20;3.25;;;17.80;38.00;;;;;;4981910;28;20238;-82
2021/03/20 12:11:42;;;;;;;25.45;3.25;;;17.80;37.90;;;;;;4996918;28;20166;-81
2021/03/20 12:14:43;;;;;;;33.55;3.28;;;17.80;38.00;;;;;;5001002;28;20218;-81
2021/03/20 12:17:22;;;;;;;32.15;3.60;;;17.80;38.20;;;;;;4998007;28;20199;-79
2021/03/20 12:20:08;;;;;;;24.38;2.72;;;17.90;38.20;;;;;;4995512;28;20515;-79
2021/03/20 12:22:34;;;;;;;35.22;3.35;;;17.90;38.20;;;;;;5012640;28;20162;-79
2021/03/20 12:25:08;;;;;;;22.60;3.22;;;17.90;38.00;;;;;;5027277;28;20292;-80
2021/03/20 12:27:36;;;;;;;24.23;2.70;;;17.90;38.00;;;;;;5029689;28;20555;-80
2021/03/20 12:30:29;;;;;;;21.15;2.55;;;17.90;38.10;;;;;;4982145;28;20182;-80
2021/03/20 12:33:11;;;;;;;24.40;3.00;;;17.80;38.40;;;;;;4996876;28;20188;-79
2021/03/20 12:35:45;;;;;;;18.75;2.70;;;17.80;38.30;;;;;;5013393;28;20195;-80
2021/03/20 12:38:21;;;;;;;22.52;2.67;;;17.80;38.30;;;;;;5029355;28;20254;-80
2021/03/20 12:41:03;;;;;;;21.25;2.83;;;17.80;38.60;;;;;;5026257;28;20147;-80
2021/03/20 12:43:35;;;;;;;34.00;3.03;;;17.90;38.40;;;;;;4996343;28;20163;-79
2021/03/20 12:46:11;;;;;;;19.75;2.75;;;17.80;38.50;;;;;;4974790;28;20170;-80
2021/03/20 12:48:40;;;;;;;27.45;3.38;;;17.90;38.50;;;;;;4993059;28;20649;-80
2021/03/20 12:51:25;;;;;;;24.35;2.80;;;17.90;38.60;;;;;;4976695;28;20185;-80
2021/03/20 12:53:54;;;;;;;19.80;3.00;;;17.90;38.60;;;;;;4991876;28;20171;-80
2021/03/20 12:56:35;;;;;;;20.10;3.03;;;17.80;38.70;;;;;;4983877;28;20200;-81
2021/03/20 12:59:25;;;;;;;19.95;2.88;;;17.90;38.60;;;;;;4969570;28;20167;-79
2021/03/20 13:02:11;;;;;;;26.63;3.00;;;17.90;38.60;;;;;;5001894;28;20673;-80
2021/03/20 13:04:38;;;;;;;25.90;3.20;;;17.90;38.70;;;;;;4967467;28;20282;-81
2021/03/20 13:07:07;;;;;;;25.25;3.00;;;18.00;38.70;;;;;;4966852;28;20278;-80
2021/03/20 13:09:39;;;;;;;23.75;2.70;;;18.00;38.70;;;;;;4969833;28;20173;-80
2021/03/20 13:12:08;;;;;;;20.92;2.63;;;18.00;38.90;;;;;;4985130;28;20176;-79
2021/03/20 13:14:38;;;;;;;17.08;2.90;;;18.00;39.10;;;;;;4973415;28;20210;-79
2021/03/20 13:17:14;;;;;;;24.88;2.88;;;18.00;39.00;;;;;;4968788;28;20568;-80
2021/03/20 13:19:40;;;;;;;25.02;2.65;;;18.00;39.10;;;;;;4985336;28;20254;-80
2021/03/20 13:22:12;;;;;;;17.23;2.78;;;18.10;39.20;;;;;;5023143;28;20159;-80
2021/03/20 13:24:49;;;;;;;30.08;3.22;;;18.00;39.80;;;;;;4987733;28;20226;-80
2021/03/20 13:27:15;;;;;;;27.08;3.38;;;18.10;39.40;;;;;;4991742;28;20181;-79
2021/03/20 13:29:42;;;;;;;26.77;2.40;;;18.10;39.20;;;;;;5021633;28;20159;-80
2021/03/20 13:32:10;;;;;;;25.95;2.90;;;18.10;39.10;;;;;;4988658;28;20202;-81
2021/03/20 13:34:39;;;;;;;24.33;2.97;;;18.10;39.20;;;;;;4992696;28;20171;-79
2021/03/20 13:37:14;;;;;;;18.55;3.03;;;18.10;39.50;;;;;;4993718;28;20222;-80
2021/03/20 13:39:39;;;;;;;26.60;2.92;;;18.20;39.20;;;;;;4996124;28;20171;-79
2021/03/20 13:42:19;;;;;;;23.15;2.80;;;18.10;39.00;;;;;;4994107;28;20186;-81
2021/03/20 13:44:45;;;;;;;18.52;2.63;;;18.10;39.10;;;;;;4993957;28;20149;-81
2021/03/20 13:47:19;;;;;;;22.90;3.15;;;18.10;39.00;;;;;;4958912;28;20186;-81
2021/03/20 13:49:46;;;;;;;26.80;3.47;;;18.10;39.90;;;;;;4958816;28;20178;-82
2021/03/20 13:52:18;;;;;;;17.95;2.53;;;18.10;39.40;;;;;;4990569;28;20179;-81
2021/03/20 13:54:49;;;;;;;16.02;2.33;;;18.10;39.70;;;;;;5011847;28;20245;-82
2021/03/20 13:57:24;;;;;;;28.08;2.92;;;18.10;39.70;;;;;;5004381;28;20202;-81
2021/03/20 13:59:53;;;;;;;20.55;3.40;;;18.10;40.00;;;;;;4972732;28;20167;-81
2021/03/20 14:02:21;;;;;;;25.88;2.95;;;18.10;40.00;;;;;;4987825;28;20160;-80
2021/03/20 14:04:53;;;;;;;33.33;2.70;;;18.20;39.80;;;;;;4987347;28;20591;-81
2021/03/20 14:07:34;;;;;;;24.52;2.72;;;18.20;39.80;;;;;;4991717;28;20184;-81
2021/03/20 14:10:29;;;;;;;25.27;3.00;;;18.20;40.00;;;;;;4991731;28;20179;-81
2021/03/20 14:12:57;;;;;;;28.08;2.83;;;18.10;40.10;;;;;;4998418;28;20273;-80
2021/03/20 14:15:23;;;;;;;26.15;2.65;;;18.10;40.10;;;;;;4986398;28;20168;-80
2021/03/20 14:17:50;;;;;;;30.58;3.22;;;18.20;40.00;;;;;;4972283;28;20195;-81
2021/03/20 14:20:26;;;;;;;18.95;2.83;;;18.20;39.90;;;;;;4978208;28;20195;-83
2021/03/20 14:23:00;;;;;;;23.95;2.65;;;18.20;40.20;;;;;;5009425;28;20156;-83
2021/03/20 14:25:53;;;;;;;30.85;3.17;;;18.20;40.30;;;;;;4976420;28;20164;-83
2021/03/20 14:28:27;;;;;;;26.27;3.10;;;18.20;40.30;;;;;;4992446;28;20168;-83
2021/03/20 14:31:06;;;;;;;23.42;3.20;;;18.10;40.30;;;;;;4976985;28;20168;-83
2021/03/20 14:33:46;;;;;;;22.60;2.63;;;18.20;40.20;;;;;;4975312;28;20156;-82
2021/03/20 14:36:17;;;;;;;25.80;2.83;;;18.20;40.40;;;;;;4957578;28;20260;-79
2021/03/20 14:38:45;;;;;;;33.75;2.90;;;18.10;40.50;;;;;;5004196;28;20227;-82
2021/03/20 14:41:18;;;;;;;19.85;2.70;;;18.20;40.50;;;;;;4975754;28;20167;-82
2021/03/20 14:43:44;;;;;;;24.65;2.90;;;18.30;40.50;;;;;;4990218;28;20244;-82
2021/03/20 14:46:11;;;;;;;19.83;3.45;;;18.30;40.60;;;;;;4954504;28;20284;-81
2021/03/20 14:48:37;;;;;;;25.70;2.78;;;18.40;40.50;;;;;;4969914;28;20169;-82
2021/03/20 14:51:21;;;;;;;27.33;3.00;;;18.30;40.80;;;;;;4971553;28;20573;-80
2021/03/20 14:54:44;;;;;;;22.77;2.85;;;18.30;41.00;;;;;;4990431;28;20227;-80
2021/03/20 14:57:18;;;;;;;22.25;3.08;;;18.10;41.10;;;;;;4879807;29;20215;-82
2021/03/20 14:59:47;;;;;;;19.48;2.67;;;18.10;41.30;;;;;;4863675;29;20194;-81
2021/03/20 15:02:17;;;;;;;25.50;2.70;;;18.00;41.40;;;;;;4879778;29;20168;-82
2021/03/20 15:04:48;;;;;;;25.15;3.50;;;17.90;41.60;;;;;;4878360;29;20168;-82
2021/03/20 15:07:18;;;;;;;24.30;3.17;;;17.90;41.60;;;;;;4876875;29;20187;-82
2021/03/20 15:09:48;;;;;;;22.15;2.97;;;18.00;41.70;;;;;;4894665;29;20243;-85
2021/03/20 15:12:13;;;;;;;27.10;3.30;;;18.10;41.50;;;;;;4892150;29;20160;-82
2021/03/20 15:14:39;;;;;;;21.65;2.65;;;18.00;41.40;;;;;;4875825;29;20171;-81
2021/03/20 15:17:06;;;;;;;30.33;3.10;;;18.00;42.00;;;;;;4891355;29;20201;-82
2021/03/20 15:19:34;;;;;;;22.75;3.30;;;18.00;41.40;;;;;;4892451;29;20239;-82
2021/03/20 15:22:02;;;;;;;18.83;2.60;;;18.00;41.40;;;;;;4877206;29;20191;-82
2021/03/20 15:24:29;;;;;;;23.23;2.88;;;17.90;41.50;;;;;;4886305;29;20226;-81
2021/03/20 15:26:55;;;;;;;28.05;2.92;;;18.00;41.70;;;;;;4891680;29;20222;-81
2021/03/20 15:29:21;;;;;;;20.95;2.80;;;17.90;41.60;;;;;;4890136;29;20167;-81
2021/03/20 15:31:47;;;;;;;25.38;3.05;;;17.90;41.90;;;;;;4909614;28;20176;-82
2021/03/20 15:34:12;;;;;;;30.55;3.35;;;17.90;41.90;;;;;;4969589;28;20475;-80
2021/03/20 15:36:41;;;;;;;22.52;3.13;;;17.90;41.90;;;;;;4984686;28;20199;-81
2021/03/20 15:39:09;;;;;;;29.55;3.35;;;17.90;41.90;;;;;;4954967;28;20176;-81
2021/03/20 15:41:35;;;;;;;22.60;2.60;;;17.90;41.90;;;;;;4990519;28;20167;-82
2021/03/20 15:44:01;;;;;;;23.48;2.88;;;17.90;41.80;;;;;;5008318;28;20154;-82
2021/03/20 15:46:31;;;;;;;20.52;2.95;;;17.90;41.70;;;;;;5007714;28;20160;-82
2021/03/20 15:49:00;;;;;;;18.10;2.58;;;17.90;41.80;;;;;;4978099;28;20259;-81
2021/03/20 15:51:26;;;;;;;28.65;2.83;;;17.90;41.90;;;;;;4993006;28;20187;-82
2021/03/20 15:54:03;;;;;;;23.88;2.80;;;17.90;41.90;;;;;;4977089;28;20191;-82
2021/03/20 15:56:37;;;;;;;17.05;2.88;;;17.90;42.30;;;;;;4977604;28;20282;-82
2021/03/20 15:59:09;;;;;;;28.23;2.80;;;17.90;42.20;;;;;;4955062;28;20301;-82
2021/03/20 16:01:35;;;;;;;20.90;2.97;;;17.80;42.30;;;;;;4954708;28;20253;-82
2021/03/20 16:04:08;;;;;;;23.92;2.90;;;17.80;42.30;;;;;;4969770;28;20236;-81
2021/03/20 16:06:33;;;;;;;25.35;3.25;;;17.80;42.40;;;;;;4938277;28;20196;-82
2021/03/20 16:09:05;;;;;;;30.20;2.60;;;17.80;42.40;;;;;;4955182;28;20169;-82
2021/03/20 16:11:32;;;;;;;28.40;2.70;;;17.80;42.40;;;;;;4961686;28;20175;-81
2021/03/20 16:13:57;;;;;;;21.02;2.70;;;17.80;42.30;;;;;;4957261;28;20247;-81
2021/03/20 16:16:29;;;;;;;23.15;2.72;;;17.90;42.30;;;;;;4971322;28;20282;-82
2021/03/20 16:19:04;;;;;;;16.15;2.47;;;17.80;42.00;;;;;;4972377;28;20164;-82
2021/03/20 16:21:30;;;;;;;26.08;3.70;;;17.90;42.30;;;;;;4955924;28;20171;-82